Terminal Aerodrome Forecast
Issued by NWS

Home | Current Version | Previous Version | Text Only | Print | Product List | Glossary On
Versions: 1 2 3 4 5 6 7 8 9 10 11 12 13 14
000
FTUS44 KEPZ 301900 AAA
TAFTCS
TAF AMD
KTCS 301901Z 3019/3118 09010KT P6SM FEW060 SCT110 SCT250
     FM302100 14008KT P6SM VCTS BKN070CB BKN200
     FM310400 28005KT P6SM FEW025 BKN090
     FM311400 12007KT P6SM SCT090 BKN250=

USA.gov is the U.S. government's official web portal to all federal, state and local government web resources and services.